Tuesday, July 29, 2014
21:01 UTC
  |  Log In   |  Register Free
Airport Search:

Lewis University Airport
(KLOT)

Lewis University Airport Diagram
No Airport Diagram Available

FAA data valid effective July 24, 2014 until September 18, 2014 (unless otherwise noted).

 
 
 
 
 
 
 
 
 
 
 
 
 
 

Current Aviation Weather for Lewis University Airport (KLOT)

The most recent METAR observation for KLOT was updated at: 1835 UTC
METAR Summary (Translated METAR)
KLOT
281835Z AUTO 01012G18KT 10SM CLR 21/06 A3009 RMK AO2 T02100056 TSNO
KJOT
(6.4 nm SW from KLOT)
281835Z AUTO 36014G22KT 10SM CLR 21/06 A3010 RMK AO2 T02130057
TAF Summary (Translated TAF)
KMDW
(18.8 nm NE from KLOT)
291720Z 2918/3018 30010G15KT P6SM SCT060 FM292100 05007KT P6SM VCSH BKN040 FM300200 29005KT P6SM FEW050 SCT150 FM301400 30007KT P6SM SCT150
  Airport Weather Conditions for KLOT

 Current Weather at LOT
77° F
Mostly Cloudy
Northwest winds at 10.4 mph
LOT NOAA Radar

Pressure: 30.03 in
Humidity: 43%
Wind: from the Northwest at 10.4 gusting to 16.1 MPH (9 gusting to 14 KT)
Dew Point: 52.5°F
Visibility: 10.00 mi


Airport Weather Forecast for KLOT

Translated METAR and TAF for KLOT
Translated METAR for KLOT (2054 UTC 29 July 2014)
found at http://aviationweather.gov/adds/metars/
 
METAR text: KLOT 292035Z AUTO 29009KT 10SM SCT060 SCT080 OVC110 26/12 A3002 RMK AO2 T02550120 TSNO
Conditions at: KLOT (ROMEOVILLE/CHI , IL, US) observed 2035 UTC 29 July 2014
Temperature: 25.5°C (78°F)
Dewpoint: 12.0°C (54°F) [RH = 43%]
Pressure (altimeter): 30.02 inches Hg (1016.7 mb)
Winds: from the WNW (290 degrees) at 10 MPH (9 knots; 4.7 m/s)
Visibility: 10 or more miles (16+ km)
Ceiling: 11000 feet AGL
Clouds: scattered clouds at 6000 feet AGL
scattered clouds at 8000 feet AGL
overcast cloud deck at 11000 feet AGL
Weather: automated observation with no human augmentation;
there may or may not be significant weather present at this time
Translated TAF for KLOT

There is no translated TAF available for this airport

Find All Airport Services Find A Hotel Find A Rental Car Find A Golf Course Find A Restaurant $100 Hamburger



FBO's on the Field
FBO Company Facility Photos Services Transportation Aviation Fuel Prices: Prices include tax
Catering Weather Repair Courtesy Rental Type 100LL JetA JetA+ MOGAS 8087
 
Lewis University Airport

This FBO has not yet been rated
FS:Phillips66
Last Updated: Jul-02
Login to update fuel prices
SS:
Contact Lewis University AirportMore FBO Information
 
Add another FBO Facility Photos Catering Weather Repair Courtesy Rental Type 100LL JetA JetA+ MOGAS 8087
Services Transportation Aviation Fuel Prices: Prices include tax


GlobalAir.com Airport Resource Center model-print
model-print
model-print
model-print